Time;durP1;ratioP1;P1;durP2;ratioP2;P2;SDS_P1;SDS_P2;PMS_P1;PMS_P2;Temp;Humidity;BMP_temperature;BMP_pressure;BME280_temperature;BME280_humidity;BME280_pressure;Samples;Min_cycle;Max_cycle;Signal;HPM_P1;HPM_P2
2022/09/12 00:04:00;;;;;;;18.52;16.58;;;;;;;14.80;100.00;101684.03;10588968;28;20070;-72
2022/09/12 00:09:06;;;;;;;17.83;15.93;;;;;;;14.84;100.00;101677.16;10571010;28;20040;-72
2022/09/12 00:14:07;;;;;;;18.67;16.88;;;;;;;14.86;100.00;101673.16;10587962;28;20044;-72
2022/09/12 00:19:08;;;;;;;17.63;15.70;;;;;;;14.88;100.00;101664.78;10553938;28;20386;-72
2022/09/12 00:24:09;;;;;;;24.88;16.38;;;;;;;14.91;100.00;101666.25;10569703;28;20036;-72
2022/09/12 00:29:21;;;;;;;23.83;16.15;;;;;;;14.96;100.00;101664.56;10570072;28;20455;-72
2022/09/12 00:34:22;;;;;;;18.80;16.55;;;;;;;15.03;100.00;101662.72;10570159;28;20085;-72
2022/09/12 00:39:22;;;;;;;21.05;16.40;;;;;;;15.14;100.00;101660.41;10569510;28;20028;-72
2022/09/12 00:44:23;;;;;;;19.27;15.77;;;;;;;15.24;100.00;101661.66;10590406;28;20052;-72
2022/09/12 00:49:35;;;;;;;21.98;17.15;;;;;;;15.23;100.00;101670.91;10587814;28;20103;-72
2022/09/12 00:54:41;;;;;;;22.02;14.90;;;;;;;15.24;100.00;101658.09;10587705;28;20050;-72
2022/09/12 00:59:47;;;;;;;16.58;14.85;;;;;;;15.32;100.00;101657.88;10555780;28;20032;-72
2022/09/12 01:04:47;;;;;;;15.63;14.02;;;;;;;15.39;100.00;101642.34;10570314;28;20058;-72
2022/09/12 01:09:48;;;;;;;18.13;14.38;;;;;;;15.45;100.00;101640.66;10551609;28;20062;-72
2022/09/12 01:14:48;;;;;;;17.60;14.25;;;;;;;15.46;100.00;101637.72;10586400;28;20059;-72
2022/09/12 01:20:17;;;;;;;18.88;13.15;;;;;;;15.39;100.00;101644.25;10585369;28;20106;-72
2022/09/12 01:25:49;;;;;;;13.98;12.45;;;;;;;15.30;100.00;101641.72;10570896;28;20439;-72
2022/09/12 01:31:17;;;;;;;15.13;11.90;;;;;;;15.22;100.00;101636.47;10570748;28;20382;-72
2022/09/12 01:36:29;;;;;;;17.60;14.38;;;;;;;15.18;100.00;101628.91;10574956;28;20543;-72
2022/09/12 01:42:09;;;;;;;17.13;13.05;;;;;;;15.18;100.00;101620.72;10585844;28;20055;-72
2022/09/12 01:47:21;;;;;;;15.73;13.10;;;;;;;15.19;100.00;101611.47;10456855;28;20036;-72
2022/09/12 01:52:24;;;;;;;16.58;14.52;;;;;;;15.14;100.00;101598.50;10584261;28;20467;-72
2022/09/12 01:57:28;;;;;;;15.27;13.27;;;;;;;15.12;100.00;101597.84;10566633;28;20455;-72
2022/09/12 02:02:47;;;;;;;15.88;12.57;;;;;;;15.16;100.00;101599.13;10583084;28;20027;-72
2022/09/12 02:07:58;;;;;;;17.85;12.32;;;;;;;15.20;100.00;101594.09;10560094;28;20028;-71
2022/09/12 02:13:08;;;;;;;19.73;13.52;;;;;;;15.10;100.00;101589.88;10565969;28;20534;-72
2022/09/12 02:18:11;;;;;;;20.52;16.10;;;;;;;15.05;100.00;101586.94;10566149;28;20473;-72
2022/09/12 02:23:31;;;;;;;15.48;12.65;;;;;;;15.04;100.00;101577.09;10565562;28;20034;-72
2022/09/12 02:28:34;;;;;;;15.00;13.32;;;;;;;15.05;100.00;101570.56;10582701;28;20463;-72
2022/09/12 02:33:34;;;;;;;15.25;12.60;;;;;;;15.07;100.00;101563.03;10565643;28;20076;-72
2022/09/12 02:38:39;;;;;;;21.80;14.15;;;;;;;15.17;100.00;101572.69;10566253;28;20423;-72
2022/09/12 02:43:40;;;;;;;26.80;14.25;;;;;;;15.18;100.00;101558.81;10565155;28;20090;-72
2022/09/12 02:48:41;;;;;;;15.02;13.48;;;;;;;15.29;100.00;101562.81;10582229;28;20066;-72
2022/09/12 02:53:41;;;;;;;16.02;13.10;;;;;;;15.31;100.00;101566.97;10564770;28;20455;-72
2022/09/12 02:58:42;;;;;;;16.27;12.93;;;;;;;15.34;100.00;101558.34;10565188;28;20024;-72
2022/09/12 03:04:11;;;;;;;15.43;13.70;;;;;;;15.34;100.00;101547.44;10564213;28;20036;-72
2022/09/12 03:09:19;;;;;;;22.23;13.13;;;;;;;15.41;100.00;101555.66;10550413;28;20455;-72
2022/09/12 03:14:25;;;;;;;13.07;11.45;;;;;;;15.42;100.00;101548.28;10566021;28;20404;-72
2022/09/12 03:19:53;;;;;;;18.98;12.02;;;;;;;15.41;100.00;101544.72;10582918;28;20112;-72
2022/09/12 03:25:12;;;;;;;19.05;14.68;;;;;;;15.38;100.00;101539.69;10579349;28;20043;-73
2022/09/12 03:30:13;;;;;;;19.35;13.77;;;;;;;15.31;100.00;101533.38;10597024;28;20106;-72
2022/09/12 03:35:14;;;;;;;11.98;10.77;;;;;;;15.26;100.00;101531.31;10590037;28;20417;-72
2022/09/12 03:40:14;;;;;;;18.92;13.23;;;;;;;15.22;100.00;101540.13;10589394;28;20058;-72
2022/09/12 03:45:15;;;;;;;15.38;13.55;;;;;;;15.19;100.00;101530.50;10590429;28;20040;-72
2022/09/12 03:50:15;;;;;;;18.95;14.68;;;;;;;15.14;100.00;101529.44;10590304;28;20122;-72
2022/09/12 03:55:16;;;;;;;16.63;13.93;;;;;;;15.08;100.00;101534.69;10571475;28;20445;-72
2022/09/12 04:00:16;;;;;;;22.23;15.07;;;;;;;15.04;100.00;101533.44;10588118;28;20038;-72
2022/09/12 04:05:17;;;;;;;22.45;14.80;;;;;;;14.98;100.00;101525.28;10589379;28;20445;-73
2022/09/12 04:10:17;;;;;;;21.45;15.25;;;;;;;14.94;100.00;101524.84;10571108;28;20396;-72
2022/09/12 04:15:18;;;;;;;17.67;14.23;;;;;;;14.94;100.00;101522.13;10588839;28;20032;-72
2022/09/12 04:20:18;;;;;;;20.58;14.15;;;;;;;14.87;100.00;101521.31;10570241;28;20027;-72
2022/09/12 04:25:18;;;;;;;18.80;14.48;;;;;;;14.92;100.00;101528.84;10588474;28;20043;-72
2022/09/12 04:30:19;;;;;;;19.55;15.52;;;;;;;14.87;100.00;101529.50;10588273;28;20368;-72
2022/09/12 04:35:19;;;;;;;20.85;15.02;;;;;;;14.84;100.00;101525.28;10588390;28;20047;-71
2022/09/12 04:40:20;;;;;;;19.42;16.55;;;;;;;14.85;100.00;101526.97;10536965;28;20367;-74
2022/09/12 04:45:21;;;;;;;18.60;16.67;;;;;;;14.84;100.00;101524.47;10573737;28;20035;-73
2022/09/12 04:50:21;;;;;;;17.92;15.70;;;;;;;14.79;100.00;101526.97;10588586;28;20039;-73
2022/09/12 04:55:24;;;;;;;21.52;14.25;;;;;;;14.72;100.00;101528.84;10568902;28;20467;-73
2022/09/12 05:00:24;;;;;;;19.50;16.65;;;;;;;14.55;100.00;101526.53;10587001;28;20031;-72
2022/09/12 05:05:24;;;;;;;22.85;16.90;;;;;;;14.49;100.00;101526.50;10585507;28;20390;-72
2022/09/12 05:10:25;;;;;;;24.65;16.67;;;;;;;14.45;100.00;101520.63;10569820;28;20198;-72
2022/09/12 05:15:25;;;;;;;32.67;19.92;;;;;;;14.45;100.00;101527.94;10586391;28;20486;-73
2022/09/12 05:20:26;;;;;;;33.55;20.67;;;;;;;14.54;100.00;101513.94;10586065;28;20032;-73
2022/09/12 05:25:26;;;;;;;37.55;21.92;;;;;;;14.62;100.00;101505.56;10584910;28;20027;-73
2022/09/12 05:30:27;;;;;;;33.65;20.13;;;;;;;14.70;100.00;101506.41;10584837;28;20032;-73
2022/09/12 05:35:27;;;;;;;30.13;19.17;;;;;;;14.65;100.00;101493.41;10550701;28;20057;-73
2022/09/12 05:40:27;;;;;;;26.92;20.92;;;;;;;14.63;100.00;101498.22;10585376;28;20440;-72
2022/09/12 05:45:28;;;;;;;25.83;18.08;;;;;;;14.62;100.00;101505.56;10584400;28;20028;-73
2022/09/12 05:50:28;;;;;;;26.08;19.25;;;;;;;14.65;100.00;101513.34;10586312;28;20032;-73
2022/09/12 05:55:30;;;;;;;22.90;18.15;;;;;;;14.72;100.00;101515.22;10568041;28;20088;-74
2022/09/12 06:00:30;;;;;;;26.83;19.92;;;;;;;14.81;100.00;101512.06;10586503;28;20035;-73
2022/09/12 06:05:32;;;;;;;24.60;19.83;;;;;;;15.05;100.00;101509.72;10588885;28;20053;-72
2022/09/12 06:10:34;;;;;;;30.08;22.35;;;;;;;15.67;100.00;101504.78;10586444;28;20031;-74
2022/09/12 06:15:34;;;;;;;23.98;19.20;;;;;;;16.46;100.00;101501.56;10583640;28;20035;-73
2022/09/12 06:20:35;;;;;;;26.38;18.25;;;;;;;16.93;100.00;101495.72;10584757;28;20431;-73
2022/09/12 06:25:36;;;;;;;24.65;18.40;;;;;;;17.57;100.00;101499.03;10548043;28;20063;-73
2022/09/12 06:30:36;;;;;;;27.23;21.38;;;;;;;17.96;100.00;101503.19;10582558;28;20027;-73
2022/09/12 06:35:37;;;;;;;26.77;18.50;;;;;;;18.60;100.00;101498.00;10582782;28;20035;-73
2022/09/12 06:40:43;;;;;;;30.73;19.48;;;;;;;19.40;100.00;101500.19;10584286;28;20047;-73
2022/09/12 06:45:49;;;;;;;26.30;20.77;;;;;;;20.02;100.00;101491.28;10582245;28;20370;-73
2022/09/12 06:51:01;;;;;;;24.25;19.33;;;;;;;20.53;100.00;101499.66;10583431;28;20285;-72
2022/09/12 06:56:08;;;;;;;20.40;17.85;;;;;;;21.01;100.00;101496.28;10582539;28;20468;-73
2022/09/12 07:01:16;;;;;;;22.85;17.98;;;;;;;20.70;100.00;101492.22;10564215;28;20020;-72
2022/09/12 07:06:18;;;;;;;23.38;17.25;;;;;;;20.82;100.00;101503.13;10565029;28;20160;-73
2022/09/12 07:11:20;;;;;;;23.17;17.38;;;;;;;21.71;100.00;101507.72;10564530;28;20050;-73
2022/09/12 07:16:21;;;;;;;20.17;14.48;;;;;;;22.57;100.00;101507.81;10547234;28;20066;-73
2022/09/12 07:21:21;;;;;;;17.63;13.73;;;;;;;23.04;100.00;101500.72;10547556;28;20032;-73
2022/09/12 07:26:22;;;;;;;23.45;13.70;;;;;;;23.49;99.40;101504.84;10581165;28;20051;-73
2022/09/12 07:31:23;;;;;;;17.05;14.60;;;;;;;23.69;97.44;101504.13;10546544;28;20110;-72
2022/09/12 07:36:24;;;;;;;18.13;13.85;;;;;;;23.36;98.17;101495.94;10563971;28;20031;-72
2022/09/12 07:41:26;;;;;;;16.17;13.70;;;;;;;23.15;99.45;101494.16;10546677;28;20096;-73
2022/09/12 07:46:28;;;;;;;15.38;12.80;;;;;;;23.89;100.00;101502.25;10563327;28;20027;-73
2022/09/12 07:51:29;;;;;;;14.45;12.23;;;;;;;24.11;100.00;101512.28;10562559;28;20039;-73
2022/09/12 07:56:29;;;;;;;14.68;12.52;;;;;;;24.68;100.00;101500.16;10581776;28;20035;-73
2022/09/12 08:01:29;;;;;;;13.15;11.75;;;;;;;25.03;99.73;101501.25;10580788;28;20036;-72
2022/09/12 08:06:30;;;;;;;18.05;11.45;;;;;;;25.45;100.00;101495.31;10579648;28;20043;-73
2022/09/12 08:11:31;;;;;;;12.27;9.75;;;;;;;26.04;100.00;101502.00;10586457;28;20031;-73
2022/09/12 08:16:31;;;;;;;8.10;7.28;;;;;;;26.49;100.00;101491.72;10589519;28;20053;-73
2022/09/12 08:21:32;;;;;;;9.32;5.78;;;;;;;26.07;99.36;101493.13;10589892;28;20034;-73
2022/09/12 08:26:33;;;;;;;13.50;6.10;;;;;;;26.59;100.00;101491.63;10572542;28;20125;-73
2022/09/12 08:31:35;;;;;;;6.60;5.53;;;;;;;26.98;97.11;101490.69;10570918;28;20098;-73
2022/09/12 08:36:36;;;;;;;14.40;6.70;;;;;;;26.29;87.03;101486.28;10570575;28;20116;-73
2022/09/12 08:41:44;;;;;;;5.65;5.13;;;;;;;25.74;92.61;101502.97;10569537;28;20399;-73
2022/09/12 08:47:02;;;;;;;10.27;5.85;;;;;;;26.30;91.76;101496.28;10587377;28;20039;-72
2022/09/12 08:52:14;;;;;;;5.53;5.00;;;;;;;27.01;94.05;101490.13;10588899;28;20070;-73
2022/09/12 08:57:15;;;;;;;4.95;4.55;;;;;;;26.96;88.86;101487.38;10586203;28;20041;-73
2022/09/12 09:02:40;;;;;;;9.18;4.93;;;;;;;27.14;88.12;101491.41;10586459;28;20032;-73
2022/09/12 09:07:56;;;;;;;3.40;3.20;;;;;;;27.49;89.19;101495.72;10587160;28;20425;-74
2022/09/12 09:13:05;;;;;;;3.53;3.05;;;;;;;27.71;83.06;101477.63;10587441;28;20047;-73
2022/09/12 09:18:38;;;;;;;3.63;3.08;;;;;;;27.91;84.20;101474.59;10551848;28;20050;-73
2022/09/12 09:23:42;;;;;;;2.70;2.53;;;;;;;27.39;71.27;101470.00;10550780;28;20044;-72
2022/09/12 09:28:50;;;;;;;4.03;2.90;;;;;;;27.11;69.77;101469.72;10567623;28;20071;-72
2022/09/12 09:33:53;;;;;;;3.28;3.08;;;;;;;27.09;70.67;101458.06;10566983;28;20478;-72
2022/09/12 09:38:59;;;;;;;2.92;2.72;;;;;;;27.91;74.09;101441.19;10585236;28;20039;-73
2022/09/12 09:44:00;;;;;;;2.38;2.28;;;;;;;27.64;58.27;101441.00;10585988;28;20044;-72
2022/09/12 09:49:02;;;;;;;5.70;2.72;;;;;;;27.16;62.74;101441.06;10567800;28;20106;-73
2022/09/12 09:54:11;;;;;;;4.03;3.10;;;;;;;27.89;73.10;101440.69;10566849;28;20051;-72
2022/09/12 09:59:19;;;;;;;2.80;2.60;;;;;;;28.13;68.71;101432.22;10567291;28;20024;-72
2022/09/12 10:04:24;;;;;;;3.50;3.20;;;;;;;28.83;68.18;101422.94;10567958;28;20069;-72
2022/09/12 10:09:26;;;;;;;4.27;3.47;;;;;;;29.40;66.27;101417.88;10565901;28;20055;-72
2022/09/12 10:14:33;;;;;;;3.00;2.80;;;;;;;29.38;61.26;101417.38;10565610;28;20057;-72
2022/09/12 10:19:39;;;;;;;2.92;2.72;;;;;;;26.92;55.77;101410.44;10584080;28;20422;-73
2022/09/12 10:24:40;;;;;;;4.83;3.17;;;;;;;27.61;61.39;101399.88;10547332;28;20035;-73
2022/09/12 10:29:44;;;;;;;4.45;3.22;;;;;;;28.35;62.28;101400.13;10564991;28;20027;-73
2022/09/12 10:34:45;;;;;;;3.72;3.13;;;;;;;28.50;58.57;101402.66;10582271;28;20027;-73
2022/09/12 10:39:53;;;;;;;3.10;2.95;;;;;;;29.13;57.38;101398.38;10564258;28;20046;-72
2022/09/12 10:44:54;;;;;;;2.97;2.70;;;;;;;29.72;59.42;101393.75;10582683;28;20038;-73
2022/09/12 10:50:00;;;;;;;5.50;3.13;;;;;;;29.61;54.92;101400.72;10585080;28;20038;-73
2022/09/12 10:55:00;;;;;;;2.40;2.30;;;;;;;29.95;52.78;101402.97;10550055;28;20043;-73
2022/09/12 11:00:16;;;;;;;2.60;2.40;;;;;;;29.10;48.44;101410.16;10582316;28;20047;-73
2022/09/12 11:05:20;;;;;;;;;;;;;;;28.78;54.76;101409.13;10564443;28;20113;-73
2022/09/12 11:10:44;;;;;;;2.35;2.15;;;;;;;29.12;51.99;101397.56;10564086;28;19908;-73
2022/09/12 11:16:23;;;;;;;2.58;2.38;;;;;;;29.41;49.26;101393.59;10582257;28;20023;-73
2022/09/12 11:21:26;;;;;;;2.90;2.70;;;;;;;29.23;47.96;101391.75;10565972;28;20471;-73
2022/09/12 11:26:51;;;;;;;2.25;2.15;;;;;;;29.42;51.61;101382.13;10581280;28;20091;-73
2022/09/12 11:32:16;;;;;;;2.50;2.40;;;;;;;29.91;49.74;101389.97;10581547;28;20122;-72
2022/09/12 11:37:30;;;;;;;2.40;2.28;;;;;;;29.97;49.47;101380.34;10582277;28;20428;-73
2022/09/12 11:42:34;;;;;;;3.08;2.38;;;;;;;29.96;50.78;101367.50;10582589;28;20350;-73
2022/09/12 11:47:34;;;;;;;2.03;1.92;;;;;;;30.06;51.32;101370.06;10554285;28;20050;-73
2022/09/12 11:52:36;;;;;;;3.78;2.38;;;;;;;29.79;49.54;101371.00;10571173;28;20024;-73
2022/09/12 11:57:53;;;;;;;2.70;2.50;;;;;;;29.66;44.37;101365.13;10554210;28;20035;-73
2022/09/12 12:03:05;;;;;;;2.50;2.30;;;;;;;29.50;46.80;101346.25;10571298;28;20409;-73
2022/09/12 12:08:06;;;;;;;2.50;2.40;;;;;;;29.78;50.59;101349.81;10589678;28;20038;-73
2022/09/12 12:13:28;;;;;;;2.38;2.17;;;;;;;30.49;51.35;101344.34;10537106;28;20051;-73
2022/09/12 12:18:30;;;;;;;4.07;2.10;;;;;;;30.62;52.24;101337.00;10588457;28;20526;-73
2022/09/12 12:23:32;;;;;;;6.75;3.28;;;;;;;29.86;51.15;101335.06;10571216;28;20028;-73
2022/09/12 12:28:41;;;;;;;3.10;2.33;;;;;;;28.90;42.28;101328.56;10587561;28;20487;-73
2022/09/12 12:33:42;;;;;;;2.30;2.10;;;;;;;28.45;42.43;101333.91;10587412;28;20035;-73
2022/09/12 12:38:43;;;;;;;3.08;1.92;;;;;;;28.82;46.88;101317.34;10586970;28;20093;-73
2022/09/12 12:43:47;;;;;;;2.35;2.15;;;;;;;29.17;48.67;101321.34;10568536;28;20490;-73
2022/09/12 12:49:08;;;;;;;8.52;2.45;;;;;;;29.26;46.68;101301.88;10553583;28;20031;-73
2022/09/12 12:54:28;;;;;;;4.20;2.33;;;;;;;29.25;48.37;101312.22;10586921;28;20031;-73
2022/09/12 12:59:29;;;;;;;1.67;1.58;;;;;;;29.55;50.01;101302.31;10587060;28;20026;-73
2022/09/12 13:04:29;;;;;;;13.45;2.67;;;;;;;29.57;49.66;101304.78;10569331;28;20041;-73
2022/09/12 13:09:51;;;;;;;5.65;2.35;;;;;;;29.95;47.46;101301.63;10568197;28;20028;-73
2022/09/12 13:14:55;;;;;;;8.95;2.65;;;;;;;29.14;45.14;101288.50;10568126;28;20479;-73
2022/09/12 13:20:12;;;;;;;3.85;2.60;;;;;;;29.15;49.63;101281.78;10573293;28;20103;-73
2022/09/12 13:25:24;;;;;;;5.07;3.20;;;;;;;28.94;47.53;101265.47;10564248;28;20053;-73
2022/09/12 13:30:25;;;;;;;3.42;2.28;;;;;;;29.28;50.16;101247.44;10584774;28;20432;-73
2022/09/12 13:35:39;;;;;;;4.32;3.17;;;;;;;29.15;47.48;101245.50;10585325;28;20035;-73
2022/09/12 13:40:51;;;;;;;3.08;2.30;;;;;;;28.51;49.63;101248.28;10551593;28;20039;-73
2022/09/12 13:45:52;;;;;;;2.78;2.58;;;;;;;28.19;43.04;101232.47;10552021;28;20027;-73
2022/09/12 13:50:57;;;;;;;4.20;3.25;;;;;;;28.35;45.43;101236.59;10549882;28;20466;-73
2022/09/12 13:55:58;;;;;;;3.10;2.90;;;;;;;27.88;45.11;101219.13;10550028;28;20059;-73
2022/09/12 14:01:19;;;;;;;3.22;3.03;;;;;;;27.43;44.84;101229.06;10565223;28;20028;-73
2022/09/12 14:06:19;;;;;;;1.90;1.80;;;;;;;27.56;46.74;101223.53;10585397;28;20088;-73
2022/09/12 14:11:26;;;;;;;2.58;2.33;;;;;;;27.36;47.52;101230.28;10585173;28;20039;-73
2022/09/12 14:16:27;;;;;;;4.63;3.33;;;;;;;26.85;46.17;101233.78;10567072;28;20095;-73
2022/09/12 14:21:33;;;;;;;4.65;3.15;;;;;;;26.99;50.07;101233.84;10565860;28;20039;-73
2022/09/12 14:26:34;;;;;;;6.45;3.88;;;;;;;26.54;46.76;101225.00;10548595;28;20479;-73
2022/09/12 14:31:36;;;;;;;6.82;3.35;;;;;;;26.32;46.05;101227.47;10565152;28;20038;-73
2022/09/12 14:36:50;;;;;;;3.40;2.50;;;;;;;26.29;47.21;101212.25;10584609;28;20040;-73
2022/09/12 14:41:50;;;;;;;4.00;3.70;;;;;;;26.52;49.28;101209.78;10564838;28;20039;-73
2022/09/12 14:46:51;;;;;;;8.60;4.80;;;;;;;26.30;47.58;101205.59;10564767;28;20035;-73
2022/09/12 14:51:56;;;;;;;9.55;3.70;;;;;;;25.85;49.21;101220.78;10549160;28;20019;-73
2022/09/12 14:57:01;;;;;;;3.63;2.83;;;;;;;25.50;50.11;101203.31;10567041;28;20028;-73
2022/09/12 15:02:21;;;;;;;7.07;3.55;;;;;;;25.41;52.13;101207.84;10583562;28;20032;-72
2022/09/12 15:07:40;;;;;;;5.03;2.97;;;;;;;25.36;52.10;101197.59;10570088;28;20032;-73
2022/09/12 15:12:41;;;;;;;4.03;3.63;;;;;;;25.37;53.06;101201.22;10563163;28;20086;-73
2022/09/12 15:17:41;;;;;;;3.47;3.17;;;;;;;25.16;52.86;101200.53;10564294;28;20070;-72
2022/09/12 15:22:43;;;;;;;3.33;3.13;;;;;;;25.05;52.85;101177.59;10590658;28;20035;-72
2022/09/12 15:27:47;;;;;;;5.72;3.60;;;;;;;24.86;53.69;101187.69;10556798;28;20031;-73
2022/09/12 15:32:48;;;;;;;9.52;4.35;;;;;;;24.72;53.66;101185.53;10590253;28;20038;-72
2022/09/12 15:37:48;;;;;;;5.75;3.35;;;;;;;24.50;54.76;101179.56;10595209;28;20028;-73
2022/09/12 15:42:49;;;;;;;3.67;3.40;;;;;;;24.50;55.63;101176.78;10574203;28;20052;-72
2022/09/12 15:47:49;;;;;;;5.47;4.25;;;;;;;24.58;55.73;101176.22;10592303;28;20047;-73
2022/09/12 15:52:49;;;;;;;9.43;4.45;;;;;;;24.45;55.71;101166.59;10589218;28;20110;-73
2022/09/12 15:57:50;;;;;;;3.35;3.15;;;;;;;24.30;56.18;101155.53;10589776;28;20035;-72
2022/09/12 16:02:51;;;;;;;4.10;3.25;;;;;;;24.25;57.03;101152.78;10589610;28;20442;-73
2022/09/12 16:07:52;;;;;;;5.15;3.42;;;;;;;24.12;55.75;101126.53;10590693;28;20036;-73
2022/09/12 16:12:53;;;;;;;5.10;4.10;;;;;;;23.99;56.34;101118.84;10572084;28;20092;-74
2022/09/12 16:17:53;;;;;;;4.25;3.85;;;;;;;23.99;57.04;101105.84;10588281;28;20177;-73
2022/09/12 16:22:54;;;;;;;5.65;4.07;;;;;;;23.98;57.26;101098.66;10588359;28;20406;-73
2022/09/12 16:27:54;;;;;;;3.50;3.20;;;;;;;23.91;57.83;101095.38;10570430;28;20467;-73
2022/09/12 16:32:55;;;;;;;4.97;2.83;;;;;;;23.84;58.45;101103.16;10586724;28;20032;-73
2022/09/12 16:37:55;;;;;;;6.00;3.40;;;;;;;23.70;59.10;101105.66;10586859;28;20039;-73
2022/09/12 16:42:55;;;;;;;9.73;3.30;;;;;;;23.57;59.02;101098.75;10588317;28;20052;-72
2022/09/12 16:47:56;;;;;;;3.00;2.80;;;;;;;23.48;59.20;101088.53;10568686;28;20035;-73
2022/09/12 16:52:57;;;;;;;4.15;2.97;;;;;;;23.44;59.85;101089.09;10588525;28;20035;-72
2022/09/12 16:57:58;;;;;;;3.40;2.53;;;;;;;23.41;60.17;101088.84;10568238;28;20031;-72
2022/09/12 17:02:58;;;;;;;4.38;2.78;;;;;;;23.38;60.36;101081.94;10587528;28;20036;-72
2022/09/12 17:07:59;;;;;;;3.97;3.42;;;;;;;23.37;60.71;101083.03;10551898;28;20047;-73
2022/09/12 17:13:01;;;;;;;8.77;3.22;;;;;;;23.29;60.63;101080.84;10586451;28;20467;-72
2022/09/12 17:18:01;;;;;;;2.55;2.35;;;;;;;23.20;60.62;101082.53;10584322;28;20035;-72
2022/09/12 17:23:01;;;;;;;3.50;2.58;;;;;;;23.09;60.95;101078.09;10585770;28;20032;-72
2022/09/12 17:28:04;;;;;;;22.23;3.10;;;;;;;22.91;61.08;101074.78;10585018;28;20479;-73
2022/09/12 17:33:04;;;;;;;6.88;3.83;;;;;;;22.79;61.31;101078.91;10585510;28;20355;-72
2022/09/12 17:38:05;;;;;;;3.88;2.85;;;;;;;22.64;61.79;101090.75;10586473;28;20040;-72
2022/09/12 17:43:05;;;;;;;3.20;3.00;;;;;;;22.47;62.05;101086.31;10585142;28;20097;-73
2022/09/12 17:48:06;;;;;;;3.00;2.75;;;;;;;22.26;62.41;101095.63;10584488;28;20360;-72
2022/09/12 17:53:08;;;;;;;5.05;4.15;;;;;;;22.06;62.79;101086.13;10584466;28;20050;-72
2022/09/12 17:58:09;;;;;;;3.90;3.45;;;;;;;21.95;63.27;101086.34;10566376;28;20459;-73
2022/09/12 18:03:10;;;;;;;5.43;3.17;;;;;;;21.84;63.29;101079.97;10585326;28;20072;-73
2022/09/12 18:08:10;;;;;;;6.90;3.40;;;;;;;21.69;63.55;101077.97;10582585;28;20047;-73
2022/09/12 18:13:11;;;;;;;4.60;3.70;;;;;;;21.58;63.71;101071.56;10584828;28;20059;-72
2022/09/12 18:18:11;;;;;;;3.72;3.03;;;;;;;21.53;63.97;101065.19;10566828;28;20032;-73
2022/09/12 18:23:12;;;;;;;4.25;3.45;;;;;;;21.52;64.17;101058.88;10566301;28;20055;-72
2022/09/12 18:28:12;;;;;;;3.83;3.53;;;;;;;21.48;64.17;101048.66;10583348;28;20039;-73
2022/09/12 18:33:13;;;;;;;5.15;3.05;;;;;;;21.29;64.68;101042.72;10582967;28;20040;-72
2022/09/12 18:38:13;;;;;;;4.70;3.67;;;;;;;21.21;65.23;101045.97;10563925;28;20119;-71
2022/09/12 18:43:14;;;;;;;5.72;3.88;;;;;;;21.24;65.72;101032.47;10547329;28;20054;-72
2022/09/12 18:48:14;;;;;;;4.53;4.07;;;;;;;21.36;65.33;101046.09;10584060;28;20036;-73
2022/09/12 18:53:14;;;;;;;5.97;5.05;;;;;;;21.43;65.60;101057.69;10564494;28;20048;-73
2022/09/12 18:58:15;;;;;;;6.60;3.70;;;;;;;21.49;65.64;101062.16;10583165;28;20036;-72
2022/09/12 19:03:15;;;;;;;8.70;4.82;;;;;;;21.50;65.58;101065.72;10563462;28;20032;-73
2022/09/12 19:08:16;;;;;;;8.95;7.50;;;;;;;21.48;65.82;101071.53;10583262;28;20230;-73
2022/09/12 19:13:16;;;;;;;11.68;6.43;;;;;;;21.41;65.88;101087.47;10582711;28;20058;-73
2022/09/12 19:18:17;;;;;;;4.68;4.03;;;;;;;21.31;66.28;101084.59;10583222;28;20044;-73
2022/09/12 19:23:18;;;;;;;8.18;5.20;;;;;;;21.21;66.51;101077.06;10581993;28;20031;-72
2022/09/12 19:28:18;;;;;;;5.97;5.38;;;;;;;21.11;66.74;101074.25;10564848;28;20032;-74
2022/09/12 19:33:19;;;;;;;7.13;4.85;;;;;;;20.92;66.97;101057.31;10563290;28;20069;-71
2022/09/12 19:38:19;;;;;;;5.75;4.38;;;;;;;20.78;67.23;101064.34;10583445;28;20096;-72
2022/09/12 19:43:19;;;;;;;5.32;4.53;;;;;;;20.64;68.00;101042.78;10581492;28;20101;-73
2022/09/12 19:48:20;;;;;;;7.20;4.97;;;;;;;20.54;68.26;101048.16;10581848;28;20043;-72
2022/09/12 19:53:20;;;;;;;8.07;4.95;;;;;;;20.43;68.35;101035.38;10563343;28;20103;-72
2022/09/12 19:58:21;;;;;;;5.63;4.68;;;;;;;20.31;68.54;101045.69;10581248;28;20431;-72
2022/09/12 20:03:22;;;;;;;6.78;5.50;;;;;;;20.21;69.11;101058.25;10581337;28;20043;-72
2022/09/12 20:08:22;;;;;;;7.90;5.03;;;;;;;20.14;69.32;101054.03;10587158;28;20100;-72
2022/09/12 20:13:23;;;;;;;7.15;5.82;;;;;;;20.08;69.58;101052.31;10589781;28;20089;-72
2022/09/12 20:18:23;;;;;;;11.85;7.53;;;;;;;19.95;69.78;101057.13;10589964;28;20119;-73
2022/09/12 20:23:24;;;;;;;13.10;5.57;;;;;;;19.78;70.34;101055.50;10570961;28;20031;-73
2022/09/12 20:28:24;;;;;;;9.60;5.20;;;;;;;19.57;70.64;101046.97;10570370;28;20122;-72
2022/09/12 20:33:24;;;;;;;4.05;3.33;;;;;;;19.41;71.69;101051.44;10588591;28;20046;-72
2022/09/12 20:38:25;;;;;;;7.43;4.30;;;;;;;19.31;72.07;101033.97;10591847;28;20032;-72
2022/09/12 20:43:25;;;;;;;13.48;4.90;;;;;;;19.36;72.17;101036.78;10572276;28;20090;-72
2022/09/12 20:48:26;;;;;;;5.63;4.78;;;;;;;19.45;72.59;101036.09;10588273;28;20172;-72
2022/09/12 20:53:26;;;;;;;7.18;5.03;;;;;;;19.60;72.44;101038.22;10588835;28;20031;-72
2022/09/12 20:58:27;;;;;;;7.43;4.38;;;;;;;19.70;72.51;101032.88;10587258;28;20122;-72
2022/09/12 21:03:27;;;;;;;6.22;5.13;;;;;;;19.74;72.59;101031.28;10586699;28;20038;-72
2022/09/12 21:08:30;;;;;;;4.45;4.03;;;;;;;19.84;72.70;101036.09;10586829;28;20043;-72
2022/09/12 21:13:30;;;;;;;5.85;4.47;;;;;;;19.88;72.53;101023.50;10589743;28;20046;-73
2022/09/12 21:18:31;;;;;;;4.90;4.50;;;;;;;19.96;72.51;101035.97;10568396;28;20046;-73
2022/09/12 21:23:32;;;;;;;5.68;4.57;;;;;;;20.02;72.79;101050.59;10536276;28;20118;-73
2022/09/12 21:28:32;;;;;;;7.50;6.25;;;;;;;20.08;72.80;101053.16;10585603;28;20063;-72
2022/09/12 21:33:33;;;;;;;10.23;6.25;;;;;;;20.11;73.02;101054.56;10585222;28;20035;-71
2022/09/12 21:38:33;;;;;;;8.05;6.57;;;;;;;20.11;73.14;101068.31;10568079;28;20169;-72
2022/09/12 21:43:34;;;;;;;6.45;5.07;;;;;;;20.05;73.20;101059.16;10569188;28;20048;-71
2022/09/12 21:48:35;;;;;;;6.70;5.53;;;;;;;19.89;73.39;101054.56;10538130;28;20039;-72
2022/09/12 21:53:36;;;;;;;4.75;4.20;;;;;;;19.77;73.66;101053.84;10566874;28;20027;-71
2022/09/12 21:58:36;;;;;;;10.98;5.55;;;;;;;19.63;74.05;101043.22;10567400;28;20043;-72
2022/09/12 22:03:37;;;;;;;10.35;5.80;;;;;;;19.62;74.33;101043.44;10585213;28;20036;-71
2022/09/12 22:08:37;;;;;;;8.38;6.00;;;;;;;19.62;74.37;101037.97;10566426;28;20035;-71
2022/09/12 22:13:42;;;;;;;11.63;5.70;;;;;;;19.58;74.78;101021.16;10551249;28;20370;-71
2022/09/12 22:18:42;;;;;;;9.32;5.10;;;;;;;19.60;74.78;101016.25;10566417;28;20115;-71
2022/09/12 22:29:02;;;;;;;7.82;5.93;;;;;;;19.61;75.25;101017.91;10566915;28;20043;-71
2022/09/12 22:34:02;;;;;;;5.85;5.03;;;;;;;19.62;75.52;101007.75;10583960;28;20459;-72
2022/09/12 22:39:02;;;;;;;5.47;4.90;;;;;;;19.64;75.49;101005.59;10584445;28;20184;-71
2022/09/12 22:44:03;;;;;;;6.07;5.47;;;;;;;19.64;75.68;100997.38;10565682;28;20047;-72
2022/09/12 22:49:04;;;;;;;7.68;5.57;;;;;;;19.56;75.75;100995.88;10565913;28;20123;-71
2022/09/12 22:54:05;;;;;;;5.93;5.25;;;;;;;19.57;76.05;100989.28;10566048;28;20038;-71
2022/09/12 22:59:05;;;;;;;9.88;5.82;;;;;;;19.57;76.14;100988.47;10583493;28;20035;-72
2022/09/12 23:04:06;;;;;;;11.43;6.65;;;;;;;19.54;76.11;100981.56;10566591;28;20497;-71
2022/09/12 23:09:06;;;;;;;6.30;5.70;;;;;;;19.59;76.28;100980.78;10583406;28;20084;-71